createdAt,value
2018-05-26T00:01:28.701Z,6.50
2018-05-26T00:03:56.231Z,6.27
2018-05-26T00:06:23.795Z,6.43
2018-05-26T00:08:51.331Z,6.80
2018-05-26T00:11:18.904Z,5.90
2018-05-26T00:13:46.447Z,6.00
2018-05-26T00:16:14.073Z,6.20
2018-05-26T00:18:41.676Z,7.00
2018-05-26T00:21:09.216Z,6.83
2018-05-26T00:23:36.792Z,7.27
2018-05-26T00:26:04.313Z,6.70
2018-05-26T00:28:31.887Z,7.00
2018-05-26T00:31:00.168Z,6.30
2018-05-26T00:33:27.713Z,7.20
2018-05-26T00:35:55.272Z,7.00
2018-05-26T00:38:22.832Z,7.03
2018-05-26T00:40:50.394Z,6.43
2018-05-26T00:43:18.703Z,6.70
2018-05-26T00:45:46.308Z,6.60
2018-05-26T00:48:13.848Z,6.20
2018-05-26T00:50:41.417Z,6.87
2018-05-26T00:53:08.946Z,6.30
2018-05-26T00:55:37.434Z,6.30
2018-05-26T00:58:04.987Z,7.13
2018-05-26T01:00:32.568Z,7.33
2018-05-26T01:03:00.120Z,7.03
2018-05-26T01:05:27.700Z,7.20
2018-05-26T01:07:55.244Z,7.10
2018-05-26T01:10:22.804Z,6.37
2018-05-26T01:12:50.393Z,6.93
2018-05-26T01:15:17.976Z,6.27
2018-05-26T01:17:45.519Z,6.50
2018-05-26T01:20:13.077Z,6.73
2018-05-26T01:22:40.657Z,5.73
2018-05-26T01:25:08.981Z,6.17
2018-05-26T01:27:36.509Z,6.33
2018-05-26T01:30:04.074Z,6.23
2018-05-26T01:32:31.652Z,5.90
2018-05-26T01:34:59.226Z,5.83
2018-05-26T01:37:26.788Z,6.33
2018-05-26T01:39:54.337Z,6.23
2018-05-26T01:42:21.897Z,6.57
2018-05-26T01:44:49.458Z,6.50
2018-05-26T01:47:17.034Z,6.27
2018-05-26T01:49:44.569Z,5.77
2018-05-26T01:52:12.136Z,6.37
2018-05-26T01:54:39.671Z,5.97
2018-05-26T01:57:07.235Z,6.63
2018-05-26T01:59:34.795Z,7.03
2018-05-26T02:02:02.397Z,6.00
2018-05-26T02:04:30.362Z,6.27
2018-05-26T02:06:57.888Z,6.63
2018-05-26T02:09:25.470Z,6.63
2018-05-26T02:11:53.041Z,6.80
2018-05-26T02:14:20.613Z,6.77
2018-05-26T02:16:48.164Z,7.43
2018-05-26T02:19:15.685Z,6.17
2018-05-26T02:21:43.280Z,6.67
2018-05-26T02:24:10.809Z,6.13
2018-05-26T02:26:38.364Z,5.60
2018-05-26T02:29:05.912Z,6.40
2018-05-26T02:31:34.207Z,6.87
2018-05-26T02:34:01.794Z,6.80
2018-05-26T02:36:29.320Z,7.03
2018-05-26T02:38:56.876Z,6.23
2018-05-26T02:41:24.441Z,7.17
2018-05-26T02:43:51.972Z,6.30
2018-05-26T02:46:19.556Z,7.00
2018-05-26T02:48:47.109Z,6.50
2018-05-26T02:51:14.679Z,5.90
2018-05-26T02:53:42.214Z,6.60
2018-05-26T02:56:09.824Z,5.87
2018-05-26T02:58:37.393Z,6.53
2018-05-26T03:01:04.965Z,6.60
2018-05-26T03:03:32.520Z,6.60
2018-05-26T03:06:05.664Z,6.97
2018-05-26T03:08:38.876Z,6.33
2018-05-26T03:11:12.032Z,6.60
2018-05-26T03:13:46.001Z,6.30
2018-05-26T03:19:16.819Z,7.07
2018-05-26T03:21:44.372Z,7.27
2018-05-26T03:24:11.903Z,6.43
2018-05-26T03:26:39.479Z,7.63
2018-05-26T03:29:07.841Z,7.27
2018-05-26T03:31:35.374Z,7.53
2018-05-26T03:34:02.995Z,7.30
2018-05-26T03:36:30.575Z,7.77
2018-05-26T03:38:58.153Z,6.63
2018-05-26T03:41:25.694Z,6.80
2018-05-26T03:43:53.254Z,6.40
2018-05-26T03:46:20.828Z,7.07
2018-05-26T03:48:48.387Z,7.03
2018-05-26T03:51:15.965Z,8.13
2018-05-26T03:53:43.531Z,7.33
2018-05-26T03:56:22.951Z,7.20
2018-05-26T03:59:02.235Z,6.80
2018-05-26T04:01:29.843Z,7.00
2018-05-26T04:03:57.387Z,6.57
2018-05-26T04:06:24.996Z,6.87
2018-05-26T04:08:52.525Z,7.90
2018-05-26T04:11:20.129Z,7.33
2018-05-26T04:13:47.711Z,7.47
2018-05-26T04:16:15.315Z,6.97
2018-05-26T04:18:42.828Z,6.87
2018-05-26T04:21:10.426Z,6.90
2018-05-26T04:23:37.948Z,7.13
2018-05-26T04:26:05.547Z,7.70
2018-05-26T04:28:33.107Z,7.27
2018-05-26T04:31:00.628Z,6.93
2018-05-26T04:33:28.188Z,7.13
2018-05-26T04:35:55.732Z,6.70
2018-05-26T04:38:24.067Z,7.70
2018-05-26T04:40:51.675Z,7.47
2018-05-26T04:43:19.268Z,7.27
2018-05-26T04:45:46.795Z,7.10
2018-05-26T04:48:14.367Z,7.70
2018-05-26T04:50:41.927Z,8.20
2018-05-26T04:53:09.489Z,8.70
2018-05-26T04:55:37.060Z,8.47
2018-05-26T04:58:04.624Z,9.17
2018-05-26T05:00:32.244Z,8.33
2018-05-26T05:02:59.833Z,8.70
2018-05-26T05:05:27.411Z,10.40
2018-05-26T05:07:54.989Z,9.73
2018-05-26T05:10:22.515Z,9.83
2018-05-26T05:12:50.048Z,9.60
2018-05-26T05:15:17.654Z,9.37
2018-05-26T05:17:45.184Z,8.97
2018-05-26T05:20:12.766Z,9.97
2018-05-26T05:22:40.308Z,10.20
2018-05-26T05:25:07.967Z,10.37
2018-05-26T05:27:35.536Z,11.00
2018-05-26T05:30:03.066Z,10.67
2018-05-26T05:32:31.429Z,11.87
2018-05-26T05:34:58.941Z,12.00
2018-05-26T05:37:26.551Z,12.83
2018-05-26T05:39:54.094Z,12.50
2018-05-26T05:42:21.678Z,12.73
2018-05-26T05:44:49.331Z,13.13
2018-05-26T05:47:16.872Z,11.77
2018-05-26T05:49:44.458Z,12.60
2018-05-26T05:52:12.132Z,11.03
2018-05-26T05:54:39.713Z,10.63
2018-05-26T05:57:07.309Z,10.90
2018-05-26T05:59:34.885Z,11.90
2018-05-26T06:02:02.459Z,10.67
2018-05-26T06:04:30.048Z,11.47
2018-05-26T06:06:57.673Z,10.47
2018-05-26T06:09:25.199Z,9.33
2018-05-26T06:11:52.774Z,9.80
2018-05-26T06:14:20.366Z,8.93
2018-05-26T06:16:48.727Z,10.63
2018-05-26T06:19:16.303Z,9.67
2018-05-26T06:21:43.827Z,9.53
2018-05-26T06:24:11.387Z,9.87
2018-05-26T06:26:38.920Z,9.13
2018-05-26T06:29:06.475Z,9.47
2018-05-26T06:31:34.049Z,7.63
2018-05-26T06:34:01.626Z,8.23
2018-05-26T06:36:29.170Z,8.07
2018-05-26T06:38:56.795Z,7.23
2018-05-26T06:41:25.101Z,6.63
2018-05-26T06:43:52.679Z,6.33
2018-05-26T06:46:20.240Z,5.40
2018-05-26T06:48:47.851Z,5.83
2018-05-26T06:51:16.192Z,5.50
2018-05-26T06:53:43.808Z,5.00
2018-05-26T06:56:11.394Z,5.37
2018-05-26T06:58:38.959Z,5.07
2018-05-26T07:01:06.594Z,5.00
2018-05-26T07:03:34.126Z,4.93
2018-05-26T07:06:02.445Z,4.43
2018-05-26T07:08:30.016Z,3.27
2018-05-26T07:10:57.689Z,3.40
2018-05-26T07:13:25.245Z,3.93
2018-05-26T07:15:52.850Z,4.50
2018-05-26T07:18:20.622Z,3.53
2018-05-26T07:20:48.240Z,3.23
2018-05-26T07:23:15.816Z,3.40
2018-05-26T07:25:43.354Z,2.97
2018-05-26T07:28:10.912Z,3.17
2018-05-26T07:30:38.452Z,3.10
2018-05-26T07:33:06.046Z,2.53
2018-05-26T07:35:33.765Z,2.93
2018-05-26T07:38:01.342Z,2.73
2018-05-26T07:40:28.925Z,3.20
2018-05-26T07:42:56.460Z,3.00
2018-05-26T07:45:24.036Z,3.00
2018-05-26T07:47:51.578Z,2.53
2018-05-26T07:50:19.154Z,2.77
2018-05-26T07:52:46.732Z,2.50
2018-05-26T07:55:14.308Z,2.70
2018-05-26T07:57:41.952Z,3.00
2018-05-26T08:00:09.539Z,2.70
2018-05-26T08:02:37.092Z,2.63
2018-05-26T08:05:05.394Z,2.60
2018-05-26T08:07:32.957Z,2.97
2018-05-26T08:10:00.516Z,3.00
2018-05-26T08:12:28.205Z,3.07
2018-05-26T08:14:55.790Z,2.47
2018-05-26T08:17:23.426Z,2.60
2018-05-26T08:19:51.700Z,3.40
2018-05-26T08:22:19.262Z,2.63
2018-05-26T08:24:46.815Z,2.70
2018-05-26T08:27:14.515Z,2.63
2018-05-26T08:29:42.122Z,2.73
2018-05-26T08:32:09.720Z,3.13
2018-05-26T08:34:37.319Z,2.87
2018-05-26T08:37:04.856Z,3.23
2018-05-26T08:39:32.443Z,2.60
2018-05-26T08:42:00.027Z,3.00
2018-05-26T08:44:27.597Z,2.70
2018-05-26T08:46:55.187Z,2.87
2018-05-26T08:49:22.779Z,2.80
2018-05-26T08:51:51.100Z,2.90
2018-05-26T08:54:18.696Z,2.70
2018-05-26T08:56:46.282Z,2.73
2018-05-26T08:59:13.856Z,2.70
2018-05-26T09:01:42.188Z,2.93
2018-05-26T09:04:09.779Z,2.97
2018-05-26T09:06:37.361Z,2.77
2018-05-26T09:09:05.739Z,7.77
2018-05-26T09:11:33.297Z,3.40
2018-05-26T09:14:00.865Z,2.83
2018-05-26T09:16:28.452Z,2.83
2018-05-26T09:18:56.034Z,2.93
2018-05-26T09:21:23.625Z,2.57
2018-05-26T09:23:51.229Z,2.60
2018-05-26T09:26:18.795Z,3.10
2018-05-26T09:28:46.360Z,2.83
2018-05-26T09:31:13.932Z,2.93
2018-05-26T09:33:41.511Z,2.63
2018-05-26T09:36:09.827Z,2.90
2018-05-26T09:38:37.404Z,3.00
2018-05-26T09:41:05.084Z,2.80
2018-05-26T09:43:32.640Z,2.80
2018-05-26T09:46:00.230Z,2.73
2018-05-26T09:48:28.567Z,2.90
2018-05-26T09:50:56.146Z,2.93
2018-05-26T09:53:23.733Z,2.50
2018-05-26T09:55:52.095Z,2.83
2018-05-26T09:58:19.636Z,2.83
2018-05-26T10:00:47.203Z,2.73
2018-05-26T10:03:14.816Z,3.13
2018-05-26T10:05:42.348Z,3.20
2018-05-26T10:08:09.956Z,3.00
2018-05-26T10:10:37.550Z,2.70
2018-05-26T10:13:05.104Z,3.10
2018-05-26T10:15:32.695Z,2.97
2018-05-26T10:18:00.997Z,2.67
2018-05-26T10:20:28.574Z,2.63
2018-05-26T10:22:56.112Z,2.90
2018-05-26T10:25:23.687Z,3.23
2018-05-26T10:27:51.263Z,2.83
2018-05-26T10:30:18.816Z,2.80
2018-05-26T10:32:46.380Z,2.83
2018-05-26T10:35:14.023Z,2.97
2018-05-26T10:37:41.561Z,3.27
2018-05-26T10:40:09.140Z,2.90
2018-05-26T10:42:36.773Z,2.87
2018-05-26T10:45:04.387Z,3.13
2018-05-26T10:47:31.919Z,2.73
2018-05-26T10:49:59.521Z,2.80
2018-05-26T10:52:27.050Z,3.50
2018-05-26T10:54:54.613Z,3.10
2018-05-26T10:57:22.197Z,3.23
2018-05-26T10:59:49.807Z,2.70
2018-05-26T11:02:17.383Z,2.83
2018-05-26T11:04:44.967Z,2.60
2018-05-26T11:07:12.546Z,3.13
2018-05-26T11:09:40.135Z,3.07
2018-05-26T11:12:08.445Z,2.90
2018-05-26T11:14:36.022Z,2.87
2018-05-26T11:17:03.595Z,2.67
2018-05-26T11:19:31.164Z,3.03
2018-05-26T11:21:58.748Z,3.10
2018-05-26T11:24:26.455Z,3.13
2018-05-26T11:26:54.009Z,2.93
2018-05-26T11:29:21.569Z,3.33
2018-05-26T11:31:49.130Z,3.17
2018-05-26T11:34:16.703Z,3.17
2018-05-26T11:36:44.249Z,3.23
2018-05-26T11:39:11.864Z,2.90
2018-05-26T11:41:39.453Z,3.30
2018-05-26T11:44:07.013Z,3.27
2018-05-26T11:46:35.497Z,2.60
2018-05-26T11:49:03.103Z,3.07
2018-05-26T11:51:30.702Z,2.70
2018-05-26T11:53:58.386Z,2.63
2018-05-26T11:56:26.176Z,3.30
2018-05-26T11:58:53.930Z,3.20
2018-05-26T12:01:21.598Z,3.40
2018-05-26T12:03:49.272Z,3.40
2018-05-26T12:06:16.800Z,3.40
2018-05-26T12:08:45.045Z,2.93
2018-05-26T12:11:12.670Z,3.93
2018-05-26T12:13:40.231Z,3.53
2018-05-26T12:16:07.793Z,3.50
2018-05-26T12:18:35.356Z,3.83
2018-05-26T12:21:02.929Z,3.80
2018-05-26T12:23:30.524Z,3.43
2018-05-26T12:25:58.392Z,3.67
2018-05-26T12:28:26.683Z,3.20
2018-05-26T12:30:54.243Z,3.33
2018-05-26T12:33:21.839Z,3.70
2018-05-26T12:35:49.377Z,3.07
2018-05-26T12:38:16.963Z,3.50
2018-05-26T12:40:44.488Z,3.83
2018-05-26T12:43:12.073Z,3.47
2018-05-26T12:45:39.686Z,3.87
2018-05-26T12:48:07.307Z,3.33
2018-05-26T12:50:34.870Z,3.40
2018-05-26T12:53:02.430Z,3.20
2018-05-26T12:55:29.968Z,2.97
2018-05-26T12:57:57.547Z,3.00
2018-05-26T13:00:25.116Z,3.00
2018-05-26T13:02:52.656Z,3.27
2018-05-26T13:05:20.224Z,3.40
2018-05-26T13:07:48.507Z,3.30
2018-05-26T13:10:16.060Z,3.70
2018-05-26T13:12:43.620Z,3.30
2018-05-26T13:15:11.184Z,3.13
2018-05-26T13:17:38.728Z,3.17
2018-05-26T13:20:06.305Z,3.37
2018-05-26T13:22:34.668Z,3.10
2018-05-26T13:25:02.242Z,2.97
2018-05-26T13:27:29.846Z,3.07
2018-05-26T13:29:57.371Z,3.40
2018-05-26T13:32:24.972Z,2.90
2018-05-26T13:34:53.403Z,3.40
2018-05-26T13:37:21.432Z,3.20
2018-05-26T13:39:49.018Z,3.00
2018-05-26T13:42:16.545Z,3.33
2018-05-26T13:44:44.109Z,3.07
2018-05-26T13:47:11.652Z,3.07
2018-05-26T13:49:39.261Z,2.93
2018-05-26T13:52:06.846Z,3.03
2018-05-26T13:54:34.503Z,3.20
2018-05-26T13:57:02.018Z,3.27
2018-05-26T13:59:29.633Z,3.13
2018-05-26T14:01:57.213Z,3.03
2018-05-26T14:04:25.561Z,2.50
2018-05-26T14:06:53.582Z,3.40
2018-05-26T14:09:21.195Z,3.20
2018-05-26T14:11:48.720Z,3.30
2018-05-26T14:14:17.273Z,3.07
2018-05-26T14:16:44.813Z,3.13
2018-05-26T14:19:12.343Z,2.83
2018-05-26T14:21:39.920Z,3.10
2018-05-26T14:24:07.500Z,3.00
2018-05-26T14:26:35.105Z,2.83
2018-05-26T14:29:02.645Z,2.83
2018-05-26T14:31:30.205Z,2.83
2018-05-26T14:33:57.740Z,3.17
2018-05-26T14:36:25.362Z,2.67
2018-05-26T14:38:52.904Z,3.30
2018-05-26T14:41:20.524Z,3.77
2018-05-26T14:43:48.092Z,3.40
2018-05-26T14:46:15.616Z,3.60
2018-05-26T14:48:43.183Z,3.67
2018-05-26T14:51:10.809Z,2.70
2018-05-26T14:53:38.362Z,3.10
2018-05-26T14:56:05.942Z,2.97
2018-05-26T14:58:33.521Z,3.00
2018-05-26T15:01:01.084Z,3.20
2018-05-26T15:03:28.629Z,3.07
2018-05-26T15:05:56.200Z,3.60
2018-05-26T15:08:23.771Z,3.20
2018-05-26T15:10:51.309Z,3.20
2018-05-26T15:13:18.916Z,3.57
2018-05-26T15:15:47.285Z,3.20
2018-05-26T15:18:14.833Z,3.33
2018-05-26T15:20:42.390Z,3.27
2018-05-26T15:23:09.952Z,3.40
2018-05-26T15:25:37.471Z,3.47
2018-05-26T15:28:05.047Z,3.90
2018-05-26T15:30:32.579Z,3.60
2018-05-26T15:33:00.591Z,4.23
2018-05-26T15:35:28.171Z,3.77
2018-05-26T15:37:55.697Z,4.23
2018-05-26T15:40:23.257Z,4.50
2018-05-26T15:42:50.788Z,4.70
2018-05-26T15:45:18.329Z,4.67
2018-05-26T15:47:45.889Z,5.13
2018-05-26T15:50:13.483Z,4.70
2018-05-26T15:52:41.009Z,5.57
2018-05-26T15:55:08.592Z,5.10
2018-05-26T15:57:36.219Z,5.60
2018-05-26T16:00:04.683Z,4.90
2018-05-26T16:02:33.009Z,5.77
2018-05-26T16:05:00.589Z,4.73
2018-05-26T16:07:28.181Z,5.73
2018-05-26T16:09:56.580Z,5.47
2018-05-26T16:12:24.887Z,5.53
2018-05-26T16:14:52.503Z,5.50
2018-05-26T16:17:20.867Z,5.80
2018-05-26T16:19:48.447Z,5.17
2018-05-26T16:22:15.985Z,5.67
2018-05-26T16:24:43.519Z,6.13
2018-05-26T16:27:11.049Z,6.07
2018-05-26T16:29:38.587Z,5.47
2018-05-26T16:32:06.143Z,5.00
2018-05-26T16:34:34.502Z,5.73
2018-05-26T16:37:02.787Z,5.60
2018-05-26T16:39:30.508Z,5.33
2018-05-26T16:41:58.076Z,5.63
2018-05-26T16:44:26.398Z,5.60
2018-05-26T16:46:54.044Z,5.47
2018-05-26T16:49:21.612Z,5.30
2018-05-26T16:51:49.944Z,4.93
2018-05-26T16:54:17.569Z,6.43
2018-05-26T16:56:45.101Z,5.80
2018-05-26T16:59:12.735Z,5.50
2018-05-26T17:01:40.267Z,5.10
2018-05-26T17:04:07.872Z,5.93
2018-05-26T17:06:35.429Z,6.03
2018-05-26T17:09:02.985Z,5.73
2018-05-26T17:11:30.545Z,5.70
2018-05-26T17:13:58.139Z,5.80
2018-05-26T17:16:25.710Z,5.60
2018-05-26T17:18:54.006Z,5.43
2018-05-26T17:21:21.581Z,5.60
2018-05-26T17:23:49.101Z,5.53
2018-05-26T17:26:17.432Z,6.20
2018-05-26T17:28:45.077Z,5.80
2018-05-26T17:31:12.699Z,6.00
2018-05-26T17:33:40.263Z,5.17
2018-05-26T17:36:07.806Z,5.30
2018-05-26T17:38:35.380Z,5.47
2018-05-26T17:41:02.907Z,5.33
2018-05-26T17:43:30.895Z,5.47
2018-05-26T17:45:58.468Z,5.53
2018-05-26T17:48:26.805Z,4.93
2018-05-26T17:50:54.369Z,5.67
2018-05-26T17:53:21.923Z,5.30
2018-05-26T17:55:49.542Z,5.60
2018-05-26T17:58:17.109Z,5.70
2018-05-26T18:00:44.664Z,5.53
2018-05-26T18:03:12.373Z,5.50
2018-05-26T18:05:39.967Z,6.23
2018-05-26T18:08:07.488Z,5.80
2018-05-26T18:10:35.028Z,5.90
2018-05-26T18:13:02.609Z,5.10
2018-05-26T18:15:30.199Z,5.13
2018-05-26T18:17:58.527Z,5.67
2018-05-26T18:20:26.184Z,5.80
2018-05-26T18:22:53.746Z,6.10
2018-05-26T18:25:21.386Z,5.80
2018-05-26T18:27:48.969Z,5.73
2018-05-26T18:30:16.645Z,5.73
2018-05-26T18:32:44.243Z,5.03
2018-05-26T18:35:11.826Z,5.53
2018-05-26T18:37:39.374Z,5.97
2018-05-26T18:40:06.952Z,5.80
2018-05-26T18:42:34.516Z,6.50
2018-05-26T18:45:02.089Z,6.93
2018-05-26T18:47:29.697Z,6.20
2018-05-26T18:49:57.276Z,7.30
2018-05-26T18:52:25.567Z,7.23
2018-05-26T18:54:53.153Z,6.97
2018-05-26T18:57:20.739Z,6.67
2018-05-26T18:59:48.623Z,7.17
2018-05-26T19:02:16.287Z,7.70
2018-05-26T19:04:43.891Z,7.97
2018-05-26T19:07:11.491Z,8.30
2018-05-26T19:09:39.028Z,9.00
2018-05-26T19:12:06.559Z,8.47
2018-05-26T19:14:34.145Z,9.10
2018-05-26T19:17:01.682Z,8.57
2018-05-26T19:19:29.227Z,9.07
2018-05-26T19:21:57.657Z,7.80
2018-05-26T19:24:25.291Z,8.37
2018-05-26T19:26:52.903Z,9.20
2018-05-26T19:29:20.465Z,8.93
2018-05-26T19:31:48.052Z,7.97
2018-05-26T19:34:15.612Z,7.93
2018-05-26T19:36:44.001Z,8.90
2018-05-26T19:39:11.552Z,8.57
2018-05-26T19:41:39.109Z,8.93
2018-05-26T19:44:07.501Z,9.97
2018-05-26T19:46:34.999Z,10.27
2018-05-26T19:49:02.564Z,11.10
2018-05-26T19:51:30.142Z,10.30
2018-05-26T19:53:57.667Z,9.53
2018-05-26T19:56:25.256Z,8.90
2018-05-26T19:58:52.982Z,9.30
2018-05-26T20:01:20.569Z,8.93
2018-05-26T20:03:48.156Z,9.10
2018-05-26T20:06:16.519Z,9.30
2018-05-26T20:08:44.064Z,8.67
2018-05-26T20:11:11.600Z,8.90
2018-05-26T20:13:39.191Z,9.60
2018-05-26T20:16:06.732Z,9.10
2018-05-26T20:18:34.347Z,9.03
2018-05-26T20:21:01.987Z,9.27
2018-05-26T20:23:29.557Z,9.23
2018-05-26T20:25:57.129Z,9.80
2018-05-26T20:28:26.011Z,9.40
2018-05-26T20:30:53.545Z,9.00
2018-05-26T20:33:21.178Z,9.47
2018-05-26T20:35:48.718Z,9.40
2018-05-26T20:38:16.300Z,9.90
2018-05-26T20:40:43.838Z,9.63
2018-05-26T20:43:11.445Z,10.47
2018-05-26T20:45:39.022Z,11.33
2018-05-26T20:48:06.605Z,10.63
2018-05-26T20:50:34.140Z,11.37
2018-05-26T20:53:01.708Z,10.80
2018-05-26T20:55:29.251Z,10.53
2018-05-26T20:57:57.106Z,9.40
2018-05-26T21:00:24.728Z,11.27
2018-05-26T21:02:52.290Z,10.53
2018-05-26T21:05:19.865Z,12.10
2018-05-26T21:07:47.412Z,10.87
2018-05-26T21:10:14.997Z,10.60
2018-05-26T21:12:42.528Z,9.40
2018-05-26T21:15:10.145Z,9.63
2018-05-26T21:17:37.655Z,9.50
2018-05-26T21:20:05.225Z,9.23
2018-05-26T21:22:32.770Z,8.87
2018-05-26T21:25:00.340Z,8.87
2018-05-26T21:27:27.915Z,8.43
2018-05-26T21:29:55.464Z,8.30
2018-05-26T21:32:23.044Z,8.10
2018-05-26T21:34:50.608Z,7.20
2018-05-26T21:37:18.173Z,8.00
2018-05-26T21:39:45.762Z,8.37
2018-05-26T21:42:14.101Z,8.70
2018-05-26T21:44:41.671Z,8.50
2018-05-26T21:47:09.217Z,8.67
2018-05-26T21:49:36.817Z,8.23
2018-05-26T21:52:05.159Z,8.87
2018-05-26T21:54:33.021Z,8.83
2018-05-26T21:57:00.722Z,9.10
2018-05-26T21:59:28.393Z,8.37
2018-05-26T22:01:55.968Z,8.30
2018-05-26T22:04:23.497Z,7.97
2018-05-26T22:06:51.808Z,7.90
2018-05-26T22:09:19.504Z,7.33
2018-05-26T22:11:47.122Z,8.30
2018-05-26T22:14:14.730Z,8.70
2018-05-26T22:16:42.264Z,7.50
2018-05-26T22:19:09.812Z,7.83
2018-05-26T22:21:37.352Z,7.70
2018-05-26T22:24:04.948Z,7.37
2018-05-26T22:26:32.551Z,8.13
2018-05-26T22:29:00.095Z,8.03
2018-05-26T22:31:27.669Z,7.33
2018-05-26T22:33:55.270Z,7.67
2018-05-26T22:36:22.817Z,8.17
2018-05-26T22:38:51.150Z,7.50
2018-05-26T22:41:18.715Z,7.43
2018-05-26T22:43:46.274Z,7.77
2018-05-26T22:46:13.818Z,7.10
2018-05-26T22:48:41.385Z,6.37
2018-05-26T22:51:08.933Z,6.80
2018-05-26T22:53:36.609Z,6.87
2018-05-26T22:56:04.112Z,6.93
2018-05-26T22:58:31.671Z,7.50
2018-05-26T23:01:00.051Z,8.47
2018-05-26T23:03:27.572Z,8.27
2018-05-26T23:05:55.159Z,8.37
2018-05-26T23:08:22.712Z,8.13
2018-05-26T23:10:50.281Z,7.93
2018-05-26T23:13:18.693Z,7.83
2018-05-26T23:15:46.237Z,7.80
2018-05-26T23:18:13.800Z,8.03
2018-05-26T23:20:41.390Z,7.73
2018-05-26T23:23:08.938Z,7.83
2018-05-26T23:25:36.789Z,7.33
2018-05-26T23:28:04.370Z,7.00
2018-05-26T23:30:31.959Z,7.00
2018-05-26T23:32:59.854Z,6.47
2018-05-26T23:35:28.480Z,6.60
2018-05-26T23:37:56.005Z,7.27
2018-05-26T23:40:23.567Z,6.73
2018-05-26T23:42:51.175Z,6.73
2018-05-26T23:45:18.752Z,6.57
2018-05-26T23:47:46.295Z,8.40
2018-05-26T23:50:13.872Z,7.67
2018-05-26T23:52:41.447Z,7.10
2018-05-26T23:55:08.999Z,6.80
2018-05-26T23:57:36.525Z,6.20
